createdAt,value
2023-01-27T00:01:00.068Z,16.10
2023-01-27T00:05:04.904Z,14.90
2023-01-27T00:09:08.290Z,19.40
2023-01-27T00:13:27.194Z,15.40
2023-01-27T00:17:31.062Z,17.80
2023-01-27T00:21:52.760Z,18.00
2023-01-27T00:26:00.806Z,15.60
2023-01-27T00:30:06.158Z,17.20
2023-01-27T00:34:09.655Z,15.60
2023-01-27T00:38:14.446Z,18.20
2023-01-27T00:42:17.718Z,17.20
2023-01-27T00:46:26.162Z,16.00
2023-01-27T00:50:29.410Z,18.70
2023-01-27T00:54:32.603Z,17.10
2023-01-27T00:58:36.815Z,19.30
2023-01-27T01:02:39.907Z,18.80
2023-01-27T01:06:43.195Z,17.60
2023-01-27T01:10:46.893Z,20.10
2023-01-27T01:14:50.619Z,21.90
2023-01-27T01:18:54.388Z,19.10
2023-01-27T01:22:57.727Z,18.80
2023-01-27T01:27:00.907Z,23.10
2023-01-27T01:31:18.628Z,20.00
2023-01-27T01:35:24.780Z,19.30
2023-01-27T01:39:27.963Z,18.40
2023-01-27T01:43:31.385Z,22.80
2023-01-27T01:47:36.950Z,22.30
2023-01-27T01:51:50.521Z,24.20
2023-01-27T01:55:54.062Z,28.00
2023-01-27T02:00:07.167Z,26.10
2023-01-27T02:04:19.778Z,24.90
2023-01-27T02:08:40.225Z,22.90
2023-01-27T02:12:46.258Z,24.40
2023-01-27T02:16:51.280Z,24.20
2023-01-27T02:20:55.108Z,19.60
2023-01-27T02:25:18.807Z,20.70
2023-01-27T02:29:23.570Z,21.50
2023-01-27T02:33:27.190Z,19.90
2023-01-27T02:37:33.126Z,21.90
2023-01-27T02:41:53.072Z,21.80
2023-01-27T02:45:56.405Z,26.00
2023-01-27T02:50:00.298Z,26.60
2023-01-27T02:54:03.554Z,23.30
2023-01-27T02:58:06.920Z,25.70
2023-01-27T03:02:14.930Z,23.70
2023-01-27T03:06:20.321Z,29.20
2023-01-27T03:10:23.655Z,27.60
2023-01-27T03:14:46.452Z,30.10
2023-01-27T03:18:50.393Z,27.90
2023-01-27T03:22:53.629Z,28.70
2023-01-27T03:26:57.009Z,29.50
2023-01-27T03:31:07.342Z,26.60
2023-01-27T03:35:11.422Z,27.80
2023-01-27T03:39:33.438Z,26.40
2023-01-27T03:43:55.313Z,25.70
2023-01-27T03:47:58.480Z,25.00
2023-01-27T03:52:01.811Z,23.20
2023-01-27T03:56:06.509Z,22.20
2023-01-27T04:00:11.125Z,23.00
2023-01-27T04:04:33.374Z,24.30
2023-01-27T04:08:36.685Z,20.50
2023-01-27T04:12:39.923Z,22.60
2023-01-27T04:16:44.861Z,23.50
2023-01-27T04:20:48.161Z,24.50
2023-01-27T04:24:51.219Z,25.80
2023-01-27T04:28:54.413Z,22.30
2023-01-27T04:32:57.492Z,22.00
2023-01-27T04:37:01.082Z,23.30
2023-01-27T04:41:04.767Z,20.10
2023-01-27T04:45:08.744Z,21.90
2023-01-27T04:49:12.564Z,20.90
2023-01-27T04:53:15.969Z,19.50
2023-01-27T04:57:20.978Z,20.30
2023-01-27T05:01:24.360Z,18.60
2023-01-27T05:05:54.199Z,15.20
2023-01-27T05:09:58.550Z,17.40
2023-01-27T05:14:01.769Z,17.00
2023-01-27T05:18:04.703Z,18.80
2023-01-27T05:22:09.397Z,17.50
2023-01-27T05:26:17.956Z,17.90
2023-01-27T05:30:21.376Z,17.90
2023-01-27T05:34:24.623Z,14.30
2023-01-27T05:38:27.920Z,14.90
2023-01-27T05:42:31.003Z,16.70
2023-01-27T05:46:34.253Z,14.00
2023-01-27T05:50:37.309Z,13.70
2023-01-27T05:54:40.349Z,11.60
2023-01-27T05:58:44.208Z,11.40
2023-01-27T06:02:47.342Z,10.40
2023-01-27T06:06:50.400Z,10.20
2023-01-27T06:10:53.940Z,12.20
2023-01-27T06:15:00.285Z,10.70
2023-01-27T06:19:03.453Z,9.00
2023-01-27T06:23:09.447Z,10.70
2023-01-27T06:27:12.400Z,9.60
2023-01-27T06:31:17.693Z,10.10
2023-01-27T06:35:20.601Z,12.30
2023-01-27T06:39:23.594Z,10.70
2023-01-27T06:43:26.676Z,13.40
2023-01-27T06:47:30.061Z,11.80
2023-01-27T06:51:33.337Z,11.30
2023-01-27T06:55:41.879Z,10.70
2023-01-27T06:59:45.341Z,14.30
2023-01-27T07:03:48.997Z,10.20
2023-01-27T07:07:52.548Z,11.60
2023-01-27T07:11:55.678Z,11.50
2023-01-27T07:16:00.452Z,11.50
2023-01-27T07:20:05.077Z,12.90
2023-01-27T07:24:10.820Z,11.70
2023-01-27T07:28:13.964Z,8.90
2023-01-27T07:32:17.273Z,11.70
2023-01-27T07:36:20.537Z,12.40
2023-01-27T07:40:23.609Z,13.60
2023-01-27T07:44:26.759Z,12.70
2023-01-27T07:48:30.078Z,15.30
2023-01-27T07:52:33.191Z,15.80
2023-01-27T07:56:36.565Z,15.60
2023-01-27T08:00:40.248Z,18.00
2023-01-27T08:04:52.626Z,17.00
2023-01-27T08:08:56.739Z,18.60
2023-01-27T08:12:59.987Z,17.00
2023-01-27T08:17:03.139Z,14.30
2023-01-27T08:21:09.727Z,17.10
2023-01-27T08:25:13.143Z,17.00
2023-01-27T08:29:16.552Z,15.00
2023-01-27T08:33:22.053Z,14.00
2023-01-27T08:37:25.245Z,16.70
2023-01-27T08:41:28.493Z,14.50
2023-01-27T08:45:31.723Z,16.30
2023-01-27T08:49:34.887Z,18.20
2023-01-27T08:53:38.601Z,16.80
2023-01-27T08:57:43.301Z,19.20
2023-01-27T09:01:46.614Z,23.50
2023-01-27T09:05:49.980Z,22.00
2023-01-27T09:10:04.180Z,20.70
2023-01-27T09:14:15.825Z,20.90
2023-01-27T09:18:20.342Z,19.40
2023-01-27T09:22:23.347Z,16.60
2023-01-27T09:26:26.692Z,17.30
2023-01-27T09:30:30.054Z,17.10
2023-01-27T09:34:34.291Z,18.70
2023-01-27T09:38:57.263Z,15.90
2023-01-27T09:43:35.616Z,16.00
2023-01-27T09:47:46.530Z,15.30
2023-01-27T09:52:14.035Z,16.80
2023-01-27T09:56:32.468Z,15.20
2023-01-27T10:00:57.781Z,15.80
2023-01-27T10:05:40.651Z,14.70
2023-01-27T10:10:11.936Z,14.40
2023-01-27T10:14:38.094Z,13.30
2023-01-27T10:18:44.474Z,13.90
2023-01-27T10:22:59.043Z,17.00
2023-01-27T10:27:17.642Z,18.90
2023-01-27T10:31:27.045Z,19.10
2023-01-27T10:35:39.018Z,19.20
2023-01-27T10:40:08.435Z,19.30
2023-01-27T10:44:36.304Z,20.80
2023-01-27T10:49:44.679Z,17.70
2023-01-27T10:54:00.189Z,20.30
2023-01-27T10:58:12.889Z,19.60
2023-01-27T11:02:37.396Z,22.70
2023-01-27T11:06:42.653Z,16.90
2023-01-27T11:11:07.996Z,18.70
2023-01-27T11:15:25.457Z,18.00
2023-01-27T11:19:40.373Z,16.90
2023-01-27T11:23:51.954Z,19.00
2023-01-27T11:28:28.153Z,17.50
2023-01-27T11:32:49.141Z,18.40
2023-01-27T11:36:53.401Z,21.60
2023-01-27T11:40:56.672Z,18.50
2023-01-27T11:45:01.149Z,17.50
2023-01-27T11:49:06.495Z,18.20
2023-01-27T11:53:32.238Z,22.30
2023-01-27T11:57:41.632Z,21.20
2023-01-27T12:01:48.673Z,19.40
2023-01-27T12:05:59.431Z,19.60
2023-01-27T12:10:03.858Z,19.30
2023-01-27T12:14:13.414Z,23.00
2023-01-27T12:18:17.643Z,20.20
2023-01-27T12:22:27.740Z,22.40
2023-01-27T12:26:40.927Z,21.00
2023-01-27T12:30:48.090Z,23.40
2023-01-27T12:34:57.188Z,22.50
2023-01-27T12:39:01.806Z,22.50
2023-01-27T12:43:14.229Z,21.50
2023-01-27T12:47:28.618Z,21.60
2023-01-27T12:51:48.473Z,23.80
2023-01-27T12:55:54.334Z,23.80
2023-01-27T12:59:59.326Z,22.90
2023-01-27T13:04:22.029Z,21.80
2023-01-27T13:08:27.938Z,22.40
2023-01-27T13:12:38.038Z,23.80
2023-01-27T13:16:41.437Z,20.90
2023-01-27T13:20:48.731Z,25.00
2023-01-27T13:24:58.613Z,23.00
2023-01-27T13:29:14.774Z,23.10
2023-01-27T13:33:48.368Z,27.40
2023-01-27T13:38:15.949Z,24.20
2023-01-27T13:42:37.591Z,23.00
2023-01-27T13:46:42.208Z,25.90
2023-01-27T13:51:04.381Z,27.10
2023-01-27T13:55:13.448Z,26.60
2023-01-27T13:59:57.960Z,27.40
2023-01-27T14:04:35.663Z,29.90
2023-01-27T14:09:07.206Z,26.70
2023-01-27T14:13:43.026Z,25.20
2023-01-27T14:18:00.762Z,27.60
2023-01-27T14:22:24.924Z,23.10
2023-01-27T14:26:47.467Z,23.90
2023-01-27T14:31:00.153Z,23.90
2023-01-27T14:35:34.519Z,28.00
2023-01-27T14:40:19.739Z,27.90
2023-01-27T14:44:43.625Z,23.00
2023-01-27T14:49:19.353Z,29.20
2023-01-27T14:53:40.159Z,29.50
2023-01-27T14:58:09.387Z,33.10
2023-01-27T15:02:23.337Z,29.30
2023-01-27T15:06:42.761Z,28.70
2023-01-27T15:11:51.703Z,29.10
2023-01-27T15:16:39.335Z,28.00
2023-01-27T15:21:28.496Z,26.10
2023-01-27T15:25:39.192Z,29.80
2023-01-27T15:29:55.359Z,31.10
2023-01-27T15:34:04.300Z,31.60
2023-01-27T15:38:10.934Z,28.10
2023-01-27T15:42:27.023Z,34.20
2023-01-27T15:46:36.351Z,33.50
2023-01-27T15:55:59.350Z,33.80
2023-01-27T16:00:19.121Z,33.90
2023-01-27T16:04:25.679Z,29.00
2023-01-27T16:19:26.657Z,31.80
2023-01-27T16:24:04.498Z,31.60
2023-01-27T16:28:24.822Z,32.60
2023-01-27T16:32:37.250Z,30.50
2023-01-27T16:36:43.000Z,36.00
2023-01-27T16:41:40.453Z,32.50
2023-01-27T16:45:49.627Z,32.70
2023-01-27T16:49:56.628Z,29.80
2023-01-27T16:54:01.364Z,31.20
2023-01-27T16:58:19.484Z,35.30
2023-01-27T17:02:25.511Z,32.00
2023-01-27T17:06:58.095Z,32.10
2023-01-27T17:11:17.881Z,35.70
2023-01-27T17:15:43.460Z,33.10
2023-01-27T17:19:52.084Z,36.90
2023-01-27T17:46:27.921Z,39.70
2023-01-27T17:50:38.143Z,37.90
2023-01-27T17:54:46.914Z,41.00
2023-01-27T17:58:55.791Z,38.00
2023-01-27T18:03:03.801Z,37.20
2023-01-27T18:07:07.207Z,34.60
2023-01-27T18:11:20.744Z,36.80
2023-01-27T18:15:47.986Z,37.30
2023-01-27T18:23:57.734Z,36.10
2023-01-27T18:28:01.343Z,39.60
2023-01-27T18:32:13.963Z,36.00
2023-01-27T18:36:23.160Z,34.90
2023-01-27T18:40:32.850Z,34.50
2023-01-27T18:44:37.205Z,35.40
2023-01-27T18:48:40.341Z,32.90
2023-01-27T18:52:44.251Z,32.60
2023-01-27T18:56:47.443Z,32.40
2023-01-27T19:00:55.822Z,35.60
2023-01-27T19:04:59.774Z,35.10
2023-01-27T19:09:05.076Z,36.10
2023-01-27T19:13:10.169Z,36.00
2023-01-27T19:17:22.131Z,32.80
2023-01-27T19:21:25.186Z,33.10
2023-01-27T19:25:31.238Z,35.10
2023-01-27T19:29:34.785Z,35.20
2023-01-27T19:33:49.523Z,35.60
2023-01-27T19:43:33.728Z,33.10
2023-01-27T19:57:47.018Z,36.70
2023-01-27T20:02:25.924Z,36.70
2023-01-27T20:06:51.236Z,40.00
2023-01-27T20:11:37.883Z,39.10
2023-01-27T20:20:35.281Z,41.70
2023-01-27T20:25:18.319Z,38.50
2023-01-27T20:29:24.314Z,39.00
2023-01-27T20:43:02.530Z,33.20
2023-01-27T20:47:08.019Z,45.10
2023-01-27T20:51:15.939Z,38.80
2023-01-27T20:55:19.962Z,38.80
2023-01-27T20:59:23.420Z,40.50
2023-01-27T21:03:27.169Z,38.90
2023-01-27T21:07:30.575Z,41.10
2023-01-27T21:11:35.623Z,37.80
2023-01-27T21:15:38.940Z,40.10
2023-01-27T21:19:42.850Z,38.70
2023-01-27T21:24:28.333Z,39.90
2023-01-27T21:28:34.487Z,38.90
2023-01-27T22:29:08.561Z,34.50
2023-01-27T22:38:43.341Z,29.50
2023-01-27T22:42:50.017Z,33.50
2023-01-27T22:46:55.271Z,26.30
2023-01-27T22:51:04.483Z,29.30
2023-01-27T22:55:13.352Z,31.80
2023-01-27T22:59:18.496Z,32.50
2023-01-27T23:03:30.910Z,28.20
2023-01-27T23:07:34.208Z,27.80
2023-01-27T23:11:39.097Z,31.80
2023-01-27T23:15:42.071Z,29.60
2023-01-27T23:19:56.110Z,28.20
2023-01-27T23:23:58.953Z,29.40
2023-01-27T23:28:04.041Z,28.60
2023-01-27T23:32:07.142Z,27.60
2023-01-27T23:36:20.354Z,26.60
2023-01-27T23:40:23.253Z,31.60
2023-01-27T23:44:29.841Z,28.20
2023-01-27T23:52:35.601Z,28.40
2023-01-27T23:56:41.478Z,28.20
